createdAt,value
2019-06-20T00:00:52.185Z,13.50
2019-06-20T00:03:21.526Z,13.50
2019-06-20T00:05:50.536Z,13.50
2019-06-20T00:08:19.465Z,13.50
2019-06-20T00:10:48.745Z,13.40
2019-06-20T00:13:17.707Z,13.40
2019-06-20T00:15:46.679Z,13.40
2019-06-20T00:18:15.592Z,13.40
2019-06-20T00:20:44.513Z,13.40
2019-06-20T00:23:13.479Z,13.40
2019-06-20T00:25:43.185Z,13.40
2019-06-20T00:28:12.180Z,13.40
2019-06-20T00:30:41.690Z,13.40
2019-06-20T00:33:10.613Z,13.40
2019-06-20T00:35:39.521Z,13.40
2019-06-20T00:38:08.525Z,13.40
2019-06-20T00:40:37.470Z,13.40
2019-06-20T00:43:16.869Z,13.50
2019-06-20T00:45:37.054Z,13.50
2019-06-20T00:48:06.040Z,13.50
2019-06-20T00:50:34.967Z,13.50
2019-06-20T00:53:03.926Z,13.50
2019-06-20T00:55:32.830Z,13.40
2019-06-20T00:58:01.787Z,13.50
2019-06-20T01:00:30.814Z,13.50
2019-06-20T01:02:59.738Z,13.50
2019-06-20T01:05:28.633Z,13.50
2019-06-20T01:07:57.627Z,13.50
2019-06-20T01:10:26.639Z,13.50
2019-06-20T01:12:55.566Z,13.50
2019-06-20T01:15:24.507Z,13.50
2019-06-20T01:17:53.487Z,13.50
2019-06-20T01:20:22.965Z,13.40
2019-06-20T01:22:51.900Z,13.40
2019-06-20T01:25:35.390Z,13.40
2019-06-20T01:28:04.489Z,13.40
2019-06-20T01:30:33.389Z,13.30
2019-06-20T01:33:02.401Z,13.40
2019-06-20T01:35:31.305Z,13.30
2019-06-20T01:38:00.262Z,13.30
2019-06-20T01:40:29.243Z,13.20
2019-06-20T01:42:58.143Z,13.30
2019-06-20T01:45:27.041Z,13.20
2019-06-20T01:47:56.011Z,13.20
2019-06-20T01:50:24.914Z,13.20
2019-06-20T01:52:53.815Z,13.20
2019-06-20T01:55:22.783Z,13.20
2019-06-20T01:57:51.695Z,13.20
2019-06-20T02:00:46.188Z,13.20
2019-06-20T02:03:15.794Z,13.20
2019-06-20T02:05:45.102Z,13.20
2019-06-20T02:08:15.348Z,13.20
2019-06-20T02:10:44.343Z,13.20
2019-06-20T02:13:13.301Z,13.20
2019-06-20T02:15:42.370Z,13.20
2019-06-20T02:18:11.391Z,13.20
2019-06-20T02:20:49.396Z,13.20
2019-06-20T02:23:18.438Z,13.10
2019-06-20T02:25:47.495Z,13.00
2019-06-20T02:28:16.733Z,13.00
2019-06-20T02:30:45.630Z,13.00
2019-06-20T02:33:14.541Z,13.00
2019-06-20T02:35:43.608Z,12.90
2019-06-20T02:38:12.513Z,12.90
2019-06-20T02:40:41.522Z,12.90
2019-06-20T02:43:10.476Z,12.80
2019-06-20T02:45:39.541Z,12.80
2019-06-20T02:48:08.519Z,12.70
2019-06-20T02:50:37.595Z,12.70
2019-06-20T02:53:06.511Z,12.70
2019-06-20T02:55:35.472Z,12.70
2019-06-20T02:58:04.467Z,12.60
2019-06-20T03:00:51.413Z,12.60
2019-06-20T03:03:20.477Z,12.60
2019-06-20T03:05:49.392Z,12.60
2019-06-20T03:08:18.311Z,12.60
2019-06-20T03:10:47.318Z,12.60
2019-06-20T03:13:16.266Z,12.60
2019-06-20T03:15:45.213Z,12.60
2019-06-20T03:18:14.151Z,12.60
2019-06-20T03:20:43.076Z,12.50
2019-06-20T03:23:12.020Z,12.50
2019-06-20T03:25:41.087Z,12.50
2019-06-20T03:28:10.009Z,12.50
2019-06-20T03:30:38.910Z,12.50
2019-06-20T03:33:07.857Z,12.50
2019-06-20T03:35:36.806Z,12.50
2019-06-20T03:38:06.817Z,12.50
2019-06-20T03:40:35.794Z,12.50
2019-06-20T03:43:04.807Z,12.50
2019-06-20T03:45:34.578Z,12.50
2019-06-20T03:48:03.647Z,12.50
2019-06-20T03:50:32.548Z,12.50
2019-06-20T03:53:04.219Z,12.50
2019-06-20T03:55:33.852Z,12.60
2019-06-20T03:58:02.978Z,12.50
2019-06-20T04:00:34.263Z,12.50
2019-06-20T04:03:03.490Z,12.50
2019-06-20T04:05:32.412Z,12.50
2019-06-20T04:08:01.354Z,12.50
2019-06-20T04:10:30.271Z,12.60
2019-06-20T04:13:00.190Z,12.60
2019-06-20T04:15:29.137Z,12.50
2019-06-20T04:17:58.053Z,12.50
2019-06-20T04:20:26.962Z,12.50
2019-06-20T04:22:55.923Z,12.60
2019-06-20T04:25:24.830Z,12.60
2019-06-20T04:27:53.765Z,12.80
2019-06-20T04:30:22.777Z,12.80
2019-06-20T04:32:51.702Z,12.80
2019-06-20T04:35:20.622Z,12.90
2019-06-20T04:37:49.681Z,12.80
2019-06-20T04:40:18.946Z,12.90
2019-06-20T04:42:47.920Z,13.00
2019-06-20T04:45:31.435Z,13.00
2019-06-20T04:47:49.298Z,13.00
2019-06-20T04:50:18.328Z,13.00
2019-06-20T04:52:47.318Z,13.10
2019-06-20T04:55:16.238Z,13.10
2019-06-20T04:57:45.269Z,13.20
2019-06-20T05:00:14.568Z,13.20
2019-06-20T05:02:43.527Z,13.20
2019-06-20T05:05:12.708Z,13.20
2019-06-20T05:07:41.676Z,13.20
2019-06-20T05:10:10.995Z,13.20
2019-06-20T05:12:39.904Z,13.10
2019-06-20T05:15:09.257Z,13.10
2019-06-20T05:17:38.184Z,13.00
2019-06-20T05:20:07.497Z,12.90
2019-06-20T05:22:36.545Z,12.90
2019-06-20T05:25:06.674Z,12.90
2019-06-20T05:27:35.710Z,12.80
2019-06-20T05:30:10.421Z,12.70
2019-06-20T05:32:39.336Z,12.60
2019-06-20T05:35:08.503Z,12.50
2019-06-20T05:37:37.624Z,12.40
2019-06-20T05:40:07.929Z,12.30
2019-06-20T05:42:36.842Z,12.20
2019-06-20T05:45:07.593Z,12.20
2019-06-20T05:47:36.555Z,12.10
2019-06-20T05:50:09.715Z,12.00
2019-06-20T05:52:38.632Z,12.00
2019-06-20T05:55:07.951Z,11.90
2019-06-20T05:57:36.924Z,12.00
2019-06-20T06:00:08.628Z,12.00
2019-06-20T06:02:37.766Z,12.00
2019-06-20T06:05:07.307Z,12.10
2019-06-20T06:07:36.278Z,12.10
2019-06-20T06:10:09.660Z,12.10
2019-06-20T06:12:38.714Z,12.10
2019-06-20T06:15:09.880Z,12.10
2019-06-20T06:17:38.876Z,12.10
2019-06-20T06:20:09.845Z,12.30
2019-06-20T06:22:39.043Z,12.40
2019-06-20T06:25:08.257Z,12.50
2019-06-20T06:27:37.210Z,12.70
2019-06-20T06:30:08.358Z,12.80
2019-06-20T06:32:40.298Z,12.90
2019-06-20T06:35:09.166Z,13.00
2019-06-20T06:37:38.117Z,13.00
2019-06-20T06:40:11.320Z,13.10
2019-06-20T06:42:41.202Z,13.20
2019-06-20T06:45:12.371Z,13.20
2019-06-20T06:47:41.340Z,13.20
2019-06-20T06:50:10.681Z,13.20
2019-06-20T06:52:39.637Z,13.20
2019-06-20T06:55:09.198Z,13.10
2019-06-20T06:57:38.773Z,13.20
2019-06-20T07:00:12.372Z,13.20
2019-06-20T07:02:41.348Z,13.30
2019-06-20T07:05:11.080Z,13.50
2019-06-20T07:07:41.482Z,13.60
2019-06-20T07:10:12.250Z,13.50
2019-06-20T07:12:43.608Z,13.40
2019-06-20T07:15:14.685Z,13.50
2019-06-20T07:17:44.369Z,13.50
2019-06-20T07:20:17.541Z,13.60
2019-06-20T07:22:46.706Z,13.40
2019-06-20T07:25:16.950Z,13.60
2019-06-20T07:27:45.955Z,13.70
2019-06-20T07:30:16.945Z,13.90
2019-06-20T07:32:46.344Z,14.00
2019-06-20T07:35:22.130Z,14.10
2019-06-20T07:37:51.108Z,14.20
2019-06-20T07:40:20.220Z,14.30
2019-06-20T07:42:49.142Z,14.30
2019-06-20T07:45:19.685Z,14.40
2019-06-20T07:47:48.636Z,14.40
2019-06-20T07:50:17.956Z,14.50
2019-06-20T07:53:00.895Z,14.60
2019-06-20T07:55:18.184Z,14.70
2019-06-20T07:57:47.098Z,14.80
2019-06-20T08:00:17.778Z,14.90
2019-06-20T08:02:46.718Z,15.00
2019-06-20T08:05:15.825Z,14.90
2019-06-20T08:07:44.734Z,14.90
2019-06-20T08:10:14.940Z,15.00
2019-06-20T08:12:43.897Z,15.10
2019-06-20T08:15:15.886Z,15.20
2019-06-20T08:17:44.758Z,15.40
2019-06-20T08:20:14.436Z,15.50
2019-06-20T08:22:43.349Z,15.70
2019-06-20T08:25:15.519Z,15.90
2019-06-20T08:27:51.570Z,16.00
2019-06-20T08:30:31.958Z,15.80
2019-06-20T08:33:03.597Z,15.80
2019-06-20T08:35:32.988Z,15.70
2019-06-20T08:38:03.627Z,15.70
2019-06-20T08:40:36.381Z,15.70
2019-06-20T08:43:06.259Z,15.60
2019-06-20T08:45:36.320Z,15.40
2019-06-20T08:48:05.430Z,15.40
2019-06-20T08:50:35.034Z,15.50
2019-06-20T08:53:05.717Z,15.70
2019-06-20T08:55:35.710Z,15.70
2019-06-20T08:58:05.645Z,15.80
2019-06-20T09:00:37.243Z,16.10
2019-06-20T09:03:06.952Z,16.30
2019-06-20T09:05:36.055Z,16.60
2019-06-20T09:08:07.032Z,16.70
2019-06-20T09:10:38.257Z,17.00
2019-06-20T09:13:07.819Z,17.10
2019-06-20T09:15:36.995Z,17.10
2019-06-20T09:18:06.235Z,17.60
2019-06-20T09:20:35.952Z,18.00
2019-06-20T09:23:05.618Z,18.00
2019-06-20T09:25:34.638Z,18.20
2019-06-20T09:28:03.637Z,18.10
2019-06-20T09:30:32.827Z,18.00
2019-06-20T09:33:01.697Z,18.20
2019-06-20T09:35:30.647Z,17.90
2019-06-20T09:37:59.685Z,18.50
2019-06-20T09:40:29.096Z,19.00
2019-06-20T09:42:58.773Z,19.30
2019-06-20T09:45:27.971Z,18.90
2019-06-20T09:47:58.141Z,18.40
2019-06-20T09:50:27.207Z,18.20
2019-06-20T09:52:56.664Z,18.40
2019-06-20T09:55:25.778Z,18.80
2019-06-20T09:57:55.907Z,19.30
2019-06-20T10:00:26.649Z,19.70
2019-06-20T10:02:56.301Z,19.40
2019-06-20T10:05:26.276Z,19.20
2019-06-20T10:07:56.472Z,19.90
2019-06-20T10:10:30.445Z,20.40
2019-06-20T10:12:59.623Z,20.50
2019-06-20T10:15:33.608Z,20.90
2019-06-20T10:18:02.565Z,21.00
2019-06-20T10:20:31.678Z,21.30
2019-06-20T10:23:13.629Z,20.90
2019-06-20T10:25:43.483Z,20.90
2019-06-20T10:28:12.484Z,21.10
2019-06-20T10:30:41.477Z,20.80
2019-06-20T10:33:10.554Z,20.80
2019-06-20T10:35:39.462Z,20.40
2019-06-20T10:38:08.404Z,19.70
2019-06-20T10:40:37.619Z,19.70
2019-06-20T10:43:06.567Z,20.10
2019-06-20T10:45:36.317Z,20.20
2019-06-20T10:48:05.543Z,20.20
2019-06-20T10:50:34.651Z,19.80
2019-06-20T10:53:03.550Z,20.10
2019-06-20T10:55:32.466Z,20.30
2019-06-20T10:58:01.428Z,20.80
2019-06-20T11:00:32.172Z,21.50
2019-06-20T11:03:01.088Z,21.80
2019-06-20T11:05:30.060Z,22.10
2019-06-20T11:07:58.977Z,21.40
2019-06-20T11:10:28.276Z,21.40
2019-06-20T11:12:57.219Z,21.60
2019-06-20T11:15:26.429Z,21.80
2019-06-20T11:17:56.747Z,22.10
2019-06-20T11:20:26.110Z,21.90
2019-06-20T11:22:55.012Z,21.90
2019-06-20T11:25:23.927Z,22.10
2019-06-20T11:27:52.911Z,22.10
2019-06-20T11:30:27.057Z,21.50
2019-06-20T11:32:56.051Z,20.90
2019-06-20T11:35:24.985Z,21.60
2019-06-20T11:37:53.881Z,21.60
2019-06-20T11:40:23.127Z,22.10
2019-06-20T11:42:52.057Z,23.10
2019-06-20T11:45:21.266Z,22.00
2019-06-20T11:47:50.286Z,21.70
2019-06-20T11:50:19.791Z,21.80
2019-06-20T11:52:48.709Z,21.30
2019-06-20T11:55:18.048Z,21.20
2019-06-20T11:57:48.254Z,21.10
2019-06-20T12:00:17.267Z,20.70
2019-06-20T12:02:46.338Z,20.60
2019-06-20T12:05:17.047Z,20.30
2019-06-20T12:07:47.635Z,20.00
2019-06-20T12:10:17.559Z,19.90
2019-06-20T12:12:46.894Z,19.90
2019-06-20T12:15:18.238Z,19.90
2019-06-20T12:17:49.120Z,18.90
2019-06-20T12:20:18.874Z,18.00
2019-06-20T12:22:50.549Z,17.70
2019-06-20T12:25:19.217Z,17.60
2019-06-20T12:27:49.616Z,17.70
2019-06-20T12:30:19.998Z,18.10
2019-06-20T12:32:49.330Z,19.10
2019-06-20T12:35:19.298Z,20.00
2019-06-20T12:37:49.754Z,20.70
2019-06-20T12:40:19.593Z,20.70
2019-06-20T12:42:49.349Z,20.60
2019-06-20T12:45:18.832Z,20.60
2019-06-20T12:47:47.826Z,20.60
2019-06-20T12:50:17.219Z,21.40
2019-06-20T12:52:47.554Z,22.10
2019-06-20T12:55:16.818Z,21.90
2019-06-20T12:57:46.318Z,22.40
2019-06-20T13:00:16.406Z,23.10
2019-06-20T13:02:45.611Z,23.00
2019-06-20T13:05:15.385Z,22.20
2019-06-20T13:07:44.438Z,22.30
2019-06-20T13:10:13.754Z,22.80
2019-06-20T13:12:43.074Z,22.40
2019-06-20T13:15:13.813Z,20.90
2019-06-20T13:17:43.610Z,21.40
2019-06-20T13:20:13.616Z,21.20
2019-06-20T13:22:42.909Z,21.40
2019-06-20T13:25:12.731Z,21.50
2019-06-20T13:27:43.271Z,21.20
2019-06-20T13:30:14.367Z,21.30
2019-06-20T13:32:43.911Z,20.90
2019-06-20T13:35:14.248Z,20.50
2019-06-20T13:37:43.494Z,20.10
2019-06-20T13:40:15.538Z,20.10
2019-06-20T13:42:45.959Z,20.40
2019-06-20T13:45:20.716Z,21.00
2019-06-20T13:47:50.088Z,21.40
2019-06-20T13:50:19.497Z,21.20
2019-06-20T13:52:49.726Z,21.60
2019-06-20T13:55:19.146Z,21.60
2019-06-20T13:57:49.234Z,21.20
2019-06-20T14:00:21.151Z,20.80
2019-06-20T14:02:51.468Z,20.40
2019-06-20T14:05:20.985Z,19.90
2019-06-20T14:07:53.576Z,20.10
2019-06-20T14:10:30.263Z,20.50
2019-06-20T14:12:59.221Z,20.60
2019-06-20T14:15:28.209Z,20.50
2019-06-20T14:17:57.133Z,20.50
2019-06-20T14:20:26.175Z,20.40
2019-06-20T14:22:56.547Z,20.30
2019-06-20T14:25:25.707Z,19.80
2019-06-20T14:27:54.678Z,19.50
2019-06-20T14:30:23.818Z,19.30
2019-06-20T14:32:54.039Z,18.80
2019-06-20T14:35:23.744Z,18.20
2019-06-20T14:37:52.721Z,17.90
2019-06-20T14:40:21.896Z,17.50
2019-06-20T14:42:52.206Z,17.30
2019-06-20T14:45:21.525Z,17.20
2019-06-20T14:47:52.269Z,17.10
2019-06-20T14:50:22.398Z,17.10
2019-06-20T14:52:53.989Z,17.20
2019-06-20T14:55:23.179Z,17.10
2019-06-20T14:57:52.471Z,17.10
2019-06-20T15:00:23.636Z,17.10
2019-06-20T15:02:58.208Z,17.00
2019-06-20T15:05:26.179Z,16.90
2019-06-20T15:07:55.883Z,16.90
2019-06-20T15:10:25.033Z,16.80
2019-06-20T15:12:55.655Z,16.20
2019-06-20T15:15:24.674Z,15.80
2019-06-20T15:17:55.687Z,15.70
2019-06-20T15:20:25.461Z,15.70
2019-06-20T15:22:54.737Z,15.70
2019-06-20T15:25:23.791Z,15.60
2019-06-20T15:27:53.881Z,15.70
2019-06-20T15:30:23.312Z,15.90
2019-06-20T15:33:01.943Z,16.00
2019-06-20T15:35:22.905Z,16.20
2019-06-20T15:37:53.639Z,16.40
2019-06-20T15:40:22.385Z,16.60
2019-06-20T15:42:53.004Z,16.80
2019-06-20T15:45:21.875Z,17.00
2019-06-20T15:47:50.895Z,17.30
2019-06-20T15:50:20.233Z,17.40
2019-06-20T15:52:49.243Z,17.70
2019-06-20T15:55:20.332Z,17.90
2019-06-20T15:57:49.347Z,17.90
2019-06-20T16:00:18.696Z,17.90
2019-06-20T16:02:48.622Z,17.70
2019-06-20T16:05:18.559Z,17.50
2019-06-20T16:07:47.497Z,17.40
2019-06-20T16:10:17.035Z,17.40
2019-06-20T16:12:45.990Z,17.20
2019-06-20T16:15:23.102Z,17.10
2019-06-20T16:18:04.231Z,17.10
2019-06-20T16:20:33.586Z,17.00
2019-06-20T16:23:07.145Z,17.10
2019-06-20T16:25:36.159Z,16.90
2019-06-20T16:28:06.114Z,16.70
2019-06-20T16:30:35.082Z,16.30
2019-06-20T16:33:03.999Z,16.10
2019-06-20T16:35:33.040Z,16.40
2019-06-20T16:38:01.963Z,16.60
2019-06-20T16:40:45.571Z,16.40
2019-06-20T16:43:14.895Z,16.10
2019-06-20T16:45:44.105Z,15.90
2019-06-20T16:48:13.059Z,15.80
2019-06-20T16:50:43.660Z,15.70
2019-06-20T16:53:12.704Z,15.50
2019-06-20T16:55:41.641Z,15.50
2019-06-20T16:58:10.654Z,15.40
2019-06-20T17:00:41.665Z,15.30
2019-06-20T17:03:12.110Z,15.10
2019-06-20T17:05:41.677Z,15.00
2019-06-20T17:08:11.479Z,15.00
2019-06-20T17:10:52.227Z,14.80
2019-06-20T17:13:25.472Z,14.70
2019-06-20T17:15:55.060Z,14.50
2019-06-20T17:18:24.012Z,14.60
2019-06-20T17:20:52.967Z,14.60
2019-06-20T17:23:21.889Z,14.80
2019-06-20T17:25:50.828Z,15.20
2019-06-20T17:28:31.881Z,15.60
2019-06-20T17:31:00.845Z,15.80
2019-06-20T17:33:29.899Z,16.00
2019-06-20T17:35:58.869Z,15.90
2019-06-20T17:38:27.783Z,16.00
2019-06-20T17:40:56.704Z,15.80
2019-06-20T17:43:25.674Z,15.40
2019-06-20T17:45:54.613Z,15.20
2019-06-20T17:48:23.574Z,15.10
2019-06-20T17:50:52.510Z,15.00
2019-06-20T17:53:21.465Z,15.00
2019-06-20T17:55:50.371Z,15.00
2019-06-20T17:58:19.323Z,15.00
2019-06-20T18:00:48.283Z,14.90
2019-06-20T18:03:17.228Z,14.70
2019-06-20T18:05:46.236Z,14.70
2019-06-20T18:08:17.492Z,14.40
2019-06-20T18:10:46.541Z,14.40
2019-06-20T18:13:15.466Z,14.50
2019-06-20T18:15:44.403Z,14.60
2019-06-20T18:18:13.361Z,14.70
2019-06-20T18:20:42.288Z,14.80
2019-06-20T18:23:11.217Z,14.90
2019-06-20T18:25:40.175Z,14.70
2019-06-20T18:28:09.077Z,14.60
2019-06-20T18:30:43.191Z,14.50
2019-06-20T18:33:12.392Z,14.70
2019-06-20T18:35:41.319Z,14.60
2019-06-20T18:38:10.470Z,14.70
2019-06-20T18:40:39.401Z,14.60
2019-06-20T18:43:08.312Z,14.40
2019-06-20T18:45:37.286Z,14.20
2019-06-20T18:48:06.329Z,14.20
2019-06-20T18:50:35.272Z,14.30
2019-06-20T18:53:04.235Z,14.40
2019-06-20T18:55:34.143Z,14.40
2019-06-20T18:58:03.060Z,14.30
2019-06-20T19:00:34.961Z,14.30
2019-06-20T19:03:02.776Z,14.20
2019-06-20T19:05:31.691Z,14.10
2019-06-20T19:08:00.656Z,14.20
2019-06-20T19:10:33.455Z,14.00
2019-06-20T19:13:01.235Z,14.10
2019-06-20T19:15:30.348Z,14.10
2019-06-20T19:17:59.991Z,14.10
2019-06-20T19:20:29.051Z,14.10
2019-06-20T19:22:59.775Z,14.10
2019-06-20T19:25:29.599Z,14.20
2019-06-20T19:27:58.761Z,14.30
2019-06-20T19:30:30.606Z,14.20
2019-06-20T19:32:59.735Z,14.20
2019-06-20T19:35:28.798Z,14.30
2019-06-20T19:37:57.882Z,14.30
2019-06-20T19:40:29.884Z,14.30
2019-06-20T19:42:59.064Z,14.30
2019-06-20T19:45:28.000Z,14.60
2019-06-20T19:47:57.103Z,14.70
2019-06-20T19:50:26.021Z,14.80
2019-06-20T19:52:55.004Z,14.90
2019-06-20T19:55:24.338Z,15.30
2019-06-20T19:57:53.440Z,15.60
2019-06-20T20:00:22.747Z,15.70
2019-06-20T20:02:53.477Z,15.70
2019-06-20T20:05:22.516Z,15.80
2019-06-20T20:07:51.584Z,15.80
2019-06-20T20:10:44.399Z,15.70
2019-06-20T20:13:15.458Z,15.60
2019-06-20T20:15:44.930Z,15.60
2019-06-20T20:18:15.477Z,15.50
2019-06-20T20:20:47.476Z,15.50
2019-06-20T20:23:16.770Z,15.30
2019-06-20T20:25:45.829Z,15.10
2019-06-20T20:28:14.755Z,15.10
2019-06-20T20:30:43.725Z,15.00
2019-06-20T20:33:12.748Z,15.00
2019-06-20T20:35:41.667Z,14.90
2019-06-20T20:38:10.649Z,14.80
2019-06-20T20:40:39.586Z,14.70
2019-06-20T20:43:08.691Z,14.60
2019-06-20T20:45:37.761Z,14.50
2019-06-20T20:48:06.700Z,14.40
2019-06-20T20:50:35.754Z,14.30
2019-06-20T20:53:04.945Z,14.30
2019-06-20T20:55:33.884Z,14.20
2019-06-20T20:58:02.857Z,14.10
2019-06-20T21:00:37.744Z,14.10
2019-06-20T21:03:07.425Z,14.00
2019-06-20T21:05:50.690Z,14.00
2019-06-20T21:08:07.215Z,14.00
2019-06-20T21:10:36.290Z,14.00
2019-06-20T21:13:05.334Z,14.00
2019-06-20T21:15:34.311Z,13.80
2019-06-20T21:18:03.304Z,13.70
2019-06-20T21:20:32.313Z,13.60
2019-06-20T21:23:01.502Z,13.30
2019-06-20T21:25:32.350Z,13.10
2019-06-20T21:28:01.149Z,12.80
2019-06-20T21:30:31.666Z,12.70
2019-06-20T21:33:00.707Z,12.60
2019-06-20T21:35:29.775Z,12.50
2019-06-20T21:37:59.043Z,12.40
2019-06-20T21:40:27.942Z,12.40
2019-06-20T21:42:56.900Z,12.50
2019-06-20T21:45:26.018Z,12.60
2019-06-20T21:47:54.985Z,12.70
2019-06-20T21:50:23.896Z,12.90
2019-06-20T21:52:53.003Z,13.00
2019-06-20T21:55:21.942Z,13.10
2019-06-20T21:57:51.877Z,13.20
2019-06-20T22:00:40.339Z,13.20
2019-06-20T22:05:55.399Z,13.20
2019-06-20T22:08:24.285Z,13.20
2019-06-20T22:10:53.249Z,13.10
2019-06-20T22:13:22.210Z,13.10
2019-06-20T22:15:51.229Z,13.10
2019-06-20T22:18:20.198Z,13.10
2019-06-20T22:20:49.249Z,13.10
2019-06-20T22:23:18.159Z,13.10
2019-06-20T22:25:47.124Z,13.10
2019-06-20T22:28:16.229Z,13.00
2019-06-20T22:30:48.206Z,13.00
2019-06-20T22:33:17.148Z,13.00
2019-06-20T22:35:46.340Z,12.90
2019-06-20T22:38:15.371Z,12.80
2019-06-20T22:40:44.816Z,12.80
2019-06-20T22:43:14.859Z,12.80
2019-06-20T22:45:43.775Z,12.60
2019-06-20T22:48:12.756Z,12.70
2019-06-20T22:50:42.838Z,12.60
2019-06-20T22:53:11.775Z,12.70
2019-06-20T22:55:40.746Z,12.70
2019-06-20T22:58:09.660Z,12.80
2019-06-20T23:00:38.753Z,12.80
2019-06-20T23:03:07.724Z,12.80
2019-06-20T23:05:36.685Z,12.70
2019-06-20T23:08:05.729Z,12.70
2019-06-20T23:10:34.734Z,12.60
2019-06-20T23:13:03.637Z,12.60
2019-06-20T23:15:32.571Z,12.60
2019-06-20T23:18:01.574Z,12.50
2019-06-20T23:20:30.634Z,12.50
2019-06-20T23:22:59.557Z,12.50
2019-06-20T23:25:28.566Z,12.50
2019-06-20T23:27:57.533Z,12.40
2019-06-20T23:30:26.804Z,12.30
2019-06-20T23:32:55.774Z,12.20
2019-06-20T23:35:24.675Z,12.20
2019-06-20T23:37:53.592Z,12.20
2019-06-20T23:40:23.139Z,12.20
2019-06-20T23:42:52.079Z,12.20
2019-06-20T23:45:21.283Z,12.20
2019-06-20T23:47:50.245Z,12.20
2019-06-20T23:50:19.280Z,12.20
2019-06-20T23:52:57.633Z,12.20
2019-06-20T23:55:26.573Z,12.20
2019-06-20T23:57:55.548Z,12.10
